Time;durP1;ratioP1;P1;durP2;ratioP2;P2;SDS_P1;SDS_P2;PMS_P1;PMS_P2;Temp;Humidity;BMP_temperature;BMP_pressure;BME280_temperature;BME280_humidity;BME280_pressure;Samples;Min_cycle;Max_cycle;Signal;HPM_P1;HPM_P2
2021/06/13 00:01:23;;;;;;;11.45;7.63;;;;;;;18.83;60.64;96817.97;5010642;28;20075;-74
2021/06/13 00:03:49;;;;;;;15.23;8.52;;;;;;;18.77;60.34;96819.41;5004727;28;20050;-75
2021/06/13 00:06:15;;;;;;;15.40;9.23;;;;;;;18.72;60.62;96825.19;5004317;28;20046;-76
2021/06/13 00:08:43;;;;;;;14.07;8.57;;;;;;;18.67;60.95;96819.94;5004571;28;20045;-75
2021/06/13 00:11:10;;;;;;;15.20;9.30;;;;;;;18.62;60.90;96823.75;5004113;28;20670;-75
2021/06/13 00:13:36;;;;;;;13.73;9.02;;;;;;;18.61;61.63;96826.88;5004181;28;20045;-74
2021/06/13 00:16:02;;;;;;;12.98;9.00;;;;;;;18.57;61.80;96826.00;5004246;28;20054;-75
2021/06/13 00:18:28;;;;;;;13.48;8.52;;;;;;;18.58;61.79;96824.84;5004341;28;20104;-76
2021/06/13 00:20:55;;;;;;;14.27;8.75;;;;;;;18.54;61.62;96826.72;5004062;28;20076;-76
2021/06/13 00:23:21;;;;;;;15.13;9.10;;;;;;;18.45;61.85;96835.19;5003818;28;20678;-75
2021/06/13 00:25:49;;;;;;;16.20;9.02;;;;;;;18.43;61.85;96827.28;5003684;28;20811;-75
2021/06/13 00:28:15;;;;;;;12.38;8.73;;;;;;;18.41;62.08;96834.28;5003437;28;20541;-75
2021/06/13 00:30:41;;;;;;;12.88;7.93;;;;;;;18.39;62.60;96826.38;5003667;28;20046;-75
2021/06/13 00:33:07;;;;;;;16.02;9.40;;;;;;;18.43;62.81;96832.00;5003528;28;20316;-75
2021/06/13 00:35:34;;;;;;;12.93;8.40;;;;;;;18.44;62.22;96823.34;5003756;28;20041;-75
2021/06/13 00:38:00;;;;;;;12.88;9.23;;;;;;;18.44;62.41;96837.13;5003559;28;20042;-75
2021/06/13 00:40:28;;;;;;;11.45;8.90;;;;;;;18.47;62.57;96832.84;4993809;28;20057;-76
2021/06/13 00:42:55;;;;;;;12.02;8.93;;;;;;;18.43;62.19;96835.56;4963995;28;20101;-75
2021/06/13 00:45:22;;;;;;;13.75;9.07;;;;;;;18.36;62.41;96831.81;4964312;28;20039;-75
2021/06/13 00:47:49;;;;;;;13.25;8.73;;;;;;;18.34;62.92;96845.94;4964010;28;20343;-75
2021/06/13 00:50:20;;;;;;;13.30;8.93;;;;;;;18.37;62.65;96845.22;4963926;28;20687;-75
2021/06/13 00:52:46;;;;;;;11.13;8.38;;;;;;;18.39;62.63;96848.44;4964512;28;20042;-75
2021/06/13 00:55:12;;;;;;;13.35;8.55;;;;;;;18.39;62.50;96844.88;4964303;28;20055;-76
2021/06/13 00:57:38;;;;;;;13.32;8.55;;;;;;;18.40;62.63;96839.00;4964246;28;20055;-75
2021/06/13 01:00:08;;;;;;;12.50;8.52;;;;;;;18.39;62.75;96829.13;4964128;28;20077;-76
2021/06/13 01:02:34;;;;;;;13.05;8.73;;;;;;;18.43;62.59;96837.50;4963506;28;20535;-75
2021/06/13 01:05:00;;;;;;;13.40;9.30;;;;;;;18.49;62.26;96842.38;4963802;28;20047;-76
2021/06/13 01:07:38;;;;;;;15.10;8.98;;;;;;;18.45;62.46;96840.69;4963916;28;20046;-75
2021/06/13 01:10:12;;;;;;;9.30;7.47;;;;;;;18.43;62.46;96841.06;4964337;28;20038;-75
2021/06/13 01:12:42;;;;;;;;;;;;;;;18.41;62.46;96834.28;4964381;28;20141;-75
2021/06/13 01:15:13;;;;;;;13.63;8.70;;;;;;;18.37;62.68;96842.47;4964059;28;19933;-75
2021/06/13 01:17:44;;;;;;;10.02;7.85;;;;;;;18.34;62.90;96832.16;4963929;28;20557;-77
2021/06/13 01:20:19;;;;;;;12.70;8.25;;;;;;;18.39;62.76;96842.13;4964073;28;20043;-75
2021/06/13 01:23:11;;;;;;;10.32;8.05;;;;;;;18.39;62.62;96842.13;4963857;28;20049;-75
2021/06/13 01:25:56;;;;;;;10.65;8.63;;;;;;;18.34;62.52;96840.44;4961292;28;20043;-77
2021/06/13 01:28:54;;;;;;;13.43;9.18;;;;;;;18.24;62.47;96840.97;4963219;28;20733;-75
2021/06/13 01:31:24;;;;;;;11.52;9.05;;;;;;;18.18;62.77;96845.97;4963611;28;20047;-75
2021/06/13 01:33:51;;;;;;;10.68;8.35;;;;;;;18.17;62.69;96846.31;4963545;28;20141;-75
2021/06/13 01:36:19;;;;;;;10.95;8.13;;;;;;;18.21;62.40;96849.94;4963501;28;20058;-75
2021/06/13 01:38:47;;;;;;;11.25;8.00;;;;;;;18.17;62.47;96846.31;4963266;28;20047;-75
2021/06/13 01:41:17;;;;;;;10.40;7.93;;;;;;;18.18;62.80;96847.91;4965071;28;20051;-76
2021/06/13 01:43:44;;;;;;;10.63;8.30;;;;;;;18.18;62.27;96847.91;4963473;28;20063;-76
2021/06/13 01:46:13;;;;;;;9.77;7.70;;;;;;;18.21;62.43;96844.44;4963129;28;20678;-75
2021/06/13 01:48:40;;;;;;;10.98;8.32;;;;;;;18.25;62.38;96851.63;4963410;28;20062;-75
2021/06/13 01:51:07;;;;;;;14.23;8.63;;;;;;;18.31;62.18;96843.09;4963276;28;20043;-74
2021/06/13 01:53:41;;;;;;;10.57;8.35;;;;;;;18.35;61.47;96844.78;4965710;28;20694;-75
2021/06/13 01:56:09;;;;;;;15.20;8.75;;;;;;;18.38;61.51;96843.28;4967591;28;20122;-75
2021/06/13 01:58:36;;;;;;;14.73;9.18;;;;;;;18.36;62.27;96843.63;4967167;28;20774;-75
2021/06/13 02:01:05;;;;;;;13.48;8.60;;;;;;;18.37;62.84;96842.47;4967159;28;20122;-75
2021/06/13 02:03:34;;;;;;;11.63;8.50;;;;;;;18.38;62.86;96840.53;4967100;28;20563;-75
2021/06/13 02:06:02;;;;;;;12.98;8.65;;;;;;;18.34;63.17;96834.94;4967581;28;20050;-75
2021/06/13 02:08:33;;;;;;;15.50;8.55;;;;;;;18.30;63.64;96836.00;4966907;28;20062;-75
2021/06/13 02:10:59;;;;;;;11.20;8.70;;;;;;;18.23;63.45;96837.41;4966974;28;20191;-75
2021/06/13 02:13:26;;;;;;;16.17;9.45;;;;;;;18.15;63.06;96826.56;4966962;28;20053;-75
2021/06/13 02:15:55;;;;;;;12.35;9.00;;;;;;;18.14;63.00;96836.00;4967451;28;20047;-75
2021/06/13 02:18:23;;;;;;;12.00;8.43;;;;;;;18.14;62.43;96836.00;4967209;28;20054;-75
2021/06/13 02:20:51;;;;;;;14.63;9.38;;;;;;;18.13;61.89;96842.66;4967198;28;20050;-76
2021/06/13 02:23:17;;;;;;;10.88;8.75;;;;;;;18.13;61.86;96846.22;4967097;28;20055;-75
2021/06/13 02:25:43;;;;;;;9.45;7.88;;;;;;;18.16;61.87;96847.44;4966890;28;20047;-74
2021/06/13 02:28:10;;;;;;;13.30;8.02;;;;;;;18.19;61.77;96842.03;4967294;28;20042;-75
2021/06/13 02:30:38;;;;;;;10.20;8.30;;;;;;;18.17;61.67;96847.13;4967156;28;20046;-75
2021/06/13 02:33:05;;;;;;;12.13;8.65;;;;;;;18.16;61.25;96853.75;4967045;28;20509;-74
2021/06/13 02:35:32;;;;;;;13.60;9.13;;;;;;;18.09;61.18;96861.84;4966180;28;20579;-75
2021/06/13 02:38:01;;;;;;;13.38;8.50;;;;;;;18.05;61.86;96860.16;4966343;28;20739;-75
2021/06/13 02:40:28;;;;;;;10.30;8.88;;;;;;;18.02;60.94;96860.88;4968130;28;20057;-75
2021/06/13 02:42:55;;;;;;;14.15;9.40;;;;;;;17.95;61.28;96862.28;4966808;28;20129;-75
2021/06/13 02:45:21;;;;;;;13.45;9.05;;;;;;;17.92;61.73;96856.69;4966790;28;20063;-75
2021/06/13 02:47:47;;;;;;;12.48;9.07;;;;;;;17.89;61.82;96865.66;4966485;28;20082;-75
2021/06/13 02:50:15;;;;;;;18.00;10.18;;;;;;;17.85;61.83;96862.78;4966621;28;20047;-75
2021/06/13 02:52:46;;;;;;;13.43;9.48;;;;;;;17.82;62.04;96870.97;4966958;28;20058;-75
2021/06/13 02:55:19;;;;;;;13.90;9.52;;;;;;;17.77;61.84;96869.28;4966395;28;20125;-75
2021/06/13 02:57:51;;;;;;;15.88;10.23;;;;;;;17.74;61.95;96872.72;4966628;28;20058;-75
2021/06/13 03:00:19;;;;;;;14.35;10.05;;;;;;;17.73;62.16;96876.63;4966840;28;20073;-75
2021/06/13 03:02:50;;;;;;;12.52;9.82;;;;;;;17.72;62.37;96877.75;4965846;28;20046;-75
2021/06/13 03:05:19;;;;;;;14.45;10.00;;;;;;;17.69;62.47;96881.19;4965702;28;20046;-75
2021/06/13 03:07:46;;;;;;;13.57;10.50;;;;;;;17.69;62.36;96887.50;4966344;28;20055;-75
2021/06/13 03:10:14;;;;;;;15.85;10.30;;;;;;;17.70;62.57;96880.88;4966462;28;20105;-76
2021/06/13 03:12:40;;;;;;;15.90;9.95;;;;;;;17.73;62.69;96884.91;4965933;28;20046;-75
2021/06/13 03:15:07;;;;;;;14.93;10.27;;;;;;;17.70;62.79;96883.63;4965994;28;20405;-75
2021/06/13 03:17:35;;;;;;;14.27;10.07;;;;;;;17.69;62.58;96892.22;4966314;28;20042;-75
2021/06/13 03:20:02;;;;;;;15.48;10.25;;;;;;;17.67;62.65;96892.59;4966046;28;20046;-75
2021/06/13 03:22:28;;;;;;;16.00;10.15;;;;;;;17.67;63.05;96900.03;4966123;28;20051;-76
2021/06/13 03:24:57;;;;;;;15.02;10.25;;;;;;;17.68;62.70;96896.13;4966219;28;20050;-76
2021/06/13 03:27:25;;;;;;;13.02;9.05;;;;;;;17.68;62.86;96896.94;4966018;28;20050;-76
2021/06/13 03:29:52;;;;;;;14.02;9.70;;;;;;;17.64;62.91;96898.78;4966224;28;20170;-75
2021/06/13 03:32:18;;;;;;;14.27;10.57;;;;;;;17.60;62.84;96891.59;4965623;28;20650;-77
2021/06/13 03:34:46;;;;;;;16.20;11.20;;;;;;;17.60;62.72;96899.84;4966259;28;20084;-75
2021/06/13 03:37:13;;;;;;;16.10;11.27;;;;;;;17.54;63.07;96896.56;4965479;28;20054;-75
2021/06/13 03:39:43;;;;;;;14.07;9.88;;;;;;;17.43;62.83;96896.22;4966040;28;20047;-74
2021/06/13 03:42:11;;;;;;;18.00;10.75;;;;;;;17.36;63.08;96897.97;4967560;28;20091;-75
2021/06/13 03:44:47;;;;;;;14.98;10.23;;;;;;;17.31;63.03;96898.22;4965566;28;20312;-76
2021/06/13 03:47:14;;;;;;;15.68;10.38;;;;;;;17.20;63.38;96904.19;4965164;28;20050;-75
2021/06/13 03:49:42;;;;;;;13.73;10.00;;;;;;;17.16;63.13;96919.00;4965485;28;20050;-75
2021/06/13 03:52:08;;;;;;;16.55;10.25;;;;;;;17.14;63.48;96915.81;4965372;28;20047;-75
2021/06/13 03:54:35;;;;;;;13.30;8.95;;;;;;;17.12;63.36;96918.09;4965732;28;20788;-74
2021/06/13 03:57:05;;;;;;;12.65;9.38;;;;;;;17.12;63.59;96918.91;4965295;28;20053;-75
2021/06/13 03:59:34;;;;;;;13.85;9.25;;;;;;;17.11;63.97;96917.28;4965246;28;20057;-75
2021/06/13 04:02:04;;;;;;;13.80;9.82;;;;;;;17.11;63.90;96914.53;4965320;28;20058;-75
2021/06/13 04:04:37;;;;;;;16.25;9.95;;;;;;;17.09;63.64;96919.59;4947962;28;20054;-75
2021/06/13 04:07:07;;;;;;;17.05;10.13;;;;;;;17.03;63.76;96920.97;4965407;28;20046;-75
2021/06/13 04:09:34;;;;;;;15.98;9.93;;;;;;;16.95;63.49;96925.44;4965113;28;20054;-76
2021/06/13 04:12:02;;;;;;;13.27;10.05;;;;;;;16.91;63.80;96919.06;4964453;28;20480;-76
2021/06/13 04:14:29;;;;;;;17.60;9.75;;;;;;;16.84;63.99;96929.00;4964602;28;20702;-75
2021/06/13 04:16:56;;;;;;;16.15;10.20;;;;;;;16.86;64.27;96933.03;4964037;28;20051;-78
2021/06/13 04:19:24;;;;;;;16.02;9.73;;;;;;;16.83;64.22;96939.22;4964820;28;20058;-75
2021/06/13 04:21:52;;;;;;;18.10;9.45;;;;;;;16.84;64.37;96929.81;4964882;28;20058;-75
2021/06/13 04:24:18;;;;;;;13.63;9.60;;;;;;;16.83;64.66;96932.91;4965030;28;20053;-75
2021/06/13 04:26:45;;;;;;;14.57;9.45;;;;;;;16.82;64.73;96940.38;4964786;28;20058;-75
2021/06/13 04:29:12;;;;;;;17.73;9.98;;;;;;;16.83;64.93;96932.91;4964976;28;20043;-75
2021/06/13 04:31:38;;;;;;;16.15;10.18;;;;;;;16.80;64.79;96939.88;4964965;28;20051;-77
2021/06/13 04:34:05;;;;;;;13.70;9.57;;;;;;;16.83;64.96;96943.91;4964476;28;20046;-75
2021/06/13 04:36:33;;;;;;;14.30;9.95;;;;;;;16.80;64.91;96944.59;4964349;28;20047;-75
2021/06/13 04:38:59;;;;;;;15.52;9.90;;;;;;;16.81;65.21;96940.69;4964656;28;20062;-75
2021/06/13 04:41:26;;;;;;;16.70;10.25;;;;;;;16.83;65.17;96933.72;4965591;28;20050;-74
2021/06/13 04:43:52;;;;;;;16.40;10.02;;;;;;;16.82;65.28;96948.63;4964429;28;20567;-75
2021/06/13 04:46:23;;;;;;;17.65;10.25;;;;;;;16.84;65.22;96951.00;4964532;28;20059;-75
2021/06/13 04:48:50;;;;;;;13.32;9.60;;;;;;;16.86;65.45;96948.72;4964666;28;20047;-75
2021/06/13 04:51:16;;;;;;;17.38;10.40;;;;;;;16.86;65.25;96955.03;4963957;28;20050;-76
2021/06/13 04:54:09;;;;;;;17.65;10.38;;;;;;;16.88;64.92;96969.25;4963929;28;20051;-74
2021/06/13 04:56:42;;;;;;;15.40;10.57;;;;;;;16.83;64.67;96963.97;4964225;28;20051;-74
2021/06/13 04:59:08;;;;;;;18.10;9.13;;;;;;;16.88;65.05;96962.94;4964116;28;20042;-74
2021/06/13 05:01:35;;;;;;;16.10;10.13;;;;;;;16.87;64.68;96967.66;4963783;28;20051;-74
2021/06/13 05:04:02;;;;;;;13.68;9.38;;;;;;;16.84;64.68;96968.31;4963743;28;20243;-74
2021/06/13 05:06:29;;;;;;;15.40;9.70;;;;;;;16.89;65.07;96973.59;4963908;28;20051;-74
2021/06/13 05:08:57;;;;;;;12.30;8.23;;;;;;;16.93;64.85;96977.28;4964191;28;20046;-74
2021/06/13 05:11:23;;;;;;;11.75;8.45;;;;;;;16.97;64.90;96974.63;4964160;28;20039;-75
2021/06/13 05:13:50;;;;;;;11.27;7.43;;;;;;;16.99;63.68;96979.78;4964094;28;20058;-75
2021/06/13 05:16:16;;;;;;;13.20;8.32;;;;;;;16.95;63.12;96980.47;4964343;28;20062;-75
2021/06/13 05:18:43;;;;;;;10.75;7.70;;;;;;;16.99;63.15;96979.78;4963955;28;20050;-76
2021/06/13 05:21:09;;;;;;;11.40;8.02;;;;;;;17.02;63.76;96979.09;4964075;28;20133;-78
2021/06/13 05:23:35;;;;;;;13.13;8.25;;;;;;;17.03;63.51;96980.72;4963760;28;20628;-76
2021/06/13 05:26:03;;;;;;;14.50;7.95;;;;;;;17.05;63.03;96983.91;4963928;28;20039;-75
2021/06/13 05:28:37;;;;;;;14.65;8.10;;;;;;;17.07;62.88;96992.59;4962801;28;20051;-75
2021/06/13 05:31:03;;;;;;;11.75;6.93;;;;;;;17.08;63.31;97000.53;4963386;28;20050;-75
2021/06/13 05:33:30;;;;;;;12.60;7.50;;;;;;;17.12;63.06;96995.13;4963317;28;20057;-74
2021/06/13 05:35:57;;;;;;;13.32;7.80;;;;;;;17.20;63.37;96986.78;4963253;28;20528;-75
2021/06/13 05:38:24;;;;;;;13.07;7.80;;;;;;;17.22;63.00;96994.66;4963319;28;20050;-75
2021/06/13 05:40:51;;;;;;;11.55;6.03;;;;;;;17.26;62.51;96994.78;4964713;28;20058;-75
2021/06/13 05:43:19;;;;;;;11.05;6.60;;;;;;;17.30;61.81;96996.50;4963355;28;20050;-75
2021/06/13 05:45:45;;;;;;;11.45;6.82;;;;;;;17.36;61.26;97000.63;4963519;28;20047;-75
2021/06/13 05:48:12;;;;;;;14.45;6.80;;;;;;;17.39;61.41;96999.94;4963100;28;20058;-74
2021/06/13 05:50:38;;;;;;;10.18;6.20;;;;;;;17.38;60.31;97008.53;4963022;28;20050;-75
2021/06/13 05:53:08;;;;;;;9.65;5.78;;;;;;;17.39;60.04;97013.72;4963441;28;20058;-75
2021/06/13 05:55:42;;;;;;;10.68;6.63;;;;;;;17.45;59.73;97009.56;4945843;28;20544;-75
2021/06/13 05:58:08;;;;;;;11.73;5.68;;;;;;;17.46;59.09;97016.69;4963087;28;20138;-74
2021/06/13 06:00:38;;;;;;;10.77;5.70;;;;;;;17.52;58.96;97013.69;4963494;28;20046;-75
2021/06/13 06:03:06;;;;;;;10.27;6.18;;;;;;;17.55;58.70;97018.50;4963692;28;20059;-74
2021/06/13 06:05:33;;;;;;;12.07;6.00;;;;;;;17.55;58.86;97019.31;4963457;28;20049;-75
2021/06/13 06:08:00;;;;;;;14.25;5.97;;;;;;;17.62;58.74;97018.72;4963315;28;20051;-77
2021/06/13 06:10:29;;;;;;;7.95;5.57;;;;;;;17.65;58.22;97023.53;4962800;28;20691;-77
2021/06/13 06:12:57;;;;;;;9.43;5.47;;;;;;;17.69;58.12;97018.91;4963617;28;20038;-76
2021/06/13 06:15:26;;;;;;;8.23;5.05;;;;;;;17.73;57.22;97031.69;4962917;28;20106;-75
2021/06/13 06:17:55;;;;;;;12.38;5.85;;;;;;;17.77;57.19;97026.28;4963198;28;20449;-75
2021/06/13 06:20:24;;;;;;;8.32;5.05;;;;;;;17.85;56.91;97027.28;4963162;28;20630;-75
2021/06/13 06:22:51;;;;;;;9.80;5.00;;;;;;;17.87;56.89;97025.00;4963092;28;20051;-74
2021/06/13 06:25:18;;;;;;;9.98;5.38;;;;;;;17.86;56.35;97024.19;4962801;28;20598;-74
2021/06/13 06:27:44;;;;;;;8.98;5.22;;;;;;;17.94;56.91;97020.50;4963217;28;20050;-75
2021/06/13 06:30:15;;;;;;;6.80;4.80;;;;;;;18.04;57.07;97023.91;4963239;28;20054;-77
2021/06/13 06:32:42;;;;;;;10.45;4.63;;;;;;;18.12;56.45;97034.00;4963083;28;20555;-76
2021/06/13 06:35:11;;;;;;;13.07;5.05;;;;;;;18.12;54.23;97036.75;4962856;28;20054;-75
2021/06/13 06:37:39;;;;;;;8.38;4.70;;;;;;;18.18;55.18;97030.63;4963321;28;20046;-75
2021/06/13 06:40:07;;;;;;;7.00;4.68;;;;;;;18.25;55.98;97033.56;4964975;28;20078;-74
2021/06/13 06:42:44;;;;;;;10.65;5.57;;;;;;;18.30;54.94;97032.53;4967792;28;20055;-75
2021/06/13 06:45:12;;;;;;;8.57;4.97;;;;;;;18.28;54.25;97039.56;4966524;28;20059;-76
2021/06/13 06:47:39;;;;;;;8.15;4.22;;;;;;;18.33;54.31;97042.88;4966321;28;20058;-75
2021/06/13 06:50:08;;;;;;;7.72;4.57;;;;;;;18.36;54.32;97053.19;4966750;28;20078;-76
2021/06/13 06:52:36;;;;;;;9.50;4.32;;;;;;;18.44;55.12;97043.16;4966632;28;20050;-75
2021/06/13 06:55:03;;;;;;;8.45;4.80;;;;;;;18.51;54.64;97051.63;4966698;28;20054;-76
2021/06/13 06:57:30;;;;;;;7.68;4.72;;;;;;;18.54;53.75;97052.88;4965970;28;20047;-76
2021/06/13 06:59:57;;;;;;;7.60;4.50;;;;;;;18.54;55.42;97053.69;4966122;28;20658;-75
2021/06/13 07:02:23;;;;;;;8.27;4.88;;;;;;;18.62;54.35;97051.91;4966402;28;20042;-75
2021/06/13 07:04:50;;;;;;;9.88;4.53;;;;;;;18.65;54.79;97052.00;4966416;28;20055;-75
2021/06/13 07:07:16;;;;;;;7.53;4.35;;;;;;;18.68;54.24;97048.56;4966447;28;20058;-76
2021/06/13 07:09:44;;;;;;;9.07;4.50;;;;;;;18.72;53.80;97054.19;4966245;28;20051;-76
2021/06/13 07:12:11;;;;;;;10.13;4.85;;;;;;;18.64;54.15;97057.88;4966140;28;20043;-75
2021/06/13 07:14:38;;;;;;;11.30;4.93;;;;;;;18.62;54.44;97054.66;4966283;28;20058;-76
2021/06/13 07:17:05;;;;;;;8.93;5.20;;;;;;;18.64;55.12;97063.41;4965684;28;20482;-76
2021/06/13 07:19:31;;;;;;;10.25;5.03;;;;;;;18.75;55.69;97061.75;4965800;28;20047;-74
2021/06/13 07:21:58;;;;;;;10.07;4.20;;;;;;;18.81;54.88;97065.84;4966119;28;20046;-75
2021/06/13 07:24:24;;;;;;;7.95;4.75;;;;;;;18.88;54.18;97074.31;4966013;28;20409;-76
2021/06/13 07:26:52;;;;;;;9.50;4.68;;;;;;;18.94;53.68;97064.59;4965764;28;20046;-75
2021/06/13 07:29:18;;;;;;;9.52;4.80;;;;;;;19.01;54.22;97069.53;4965716;28;20559;-75
2021/06/13 07:31:45;;;;;;;11.70;4.50;;;;;;;19.01;53.52;97070.31;4965855;28;20058;-75
2021/06/13 07:34:11;;;;;;;8.98;5.13;;;;;;;19.06;55.21;97071.22;4965423;28;20759;-75
2021/06/13 07:36:38;;;;;;;7.97;4.72;;;;;;;19.14;54.53;97064.72;4965792;28;20043;-76
2021/06/13 07:39:05;;;;;;;12.02;5.25;;;;;;;19.18;53.97;97068.38;4965603;28;20610;-75
2021/06/13 07:41:45;;;;;;;9.57;5.53;;;;;;;19.15;53.36;97069.88;4968374;28;20436;-76
2021/06/13 07:44:12;;;;;;;16.38;5.78;;;;;;;19.22;54.68;97077.56;4965305;28;20497;-74
2021/06/13 07:46:39;;;;;;;8.20;4.68;;;;;;;19.34;53.83;97073.88;4965355;28;20047;-76
2021/06/13 07:49:05;;;;;;;10.27;5.38;;;;;;;19.39;54.84;97079.13;4965647;28;20042;-74
2021/06/13 07:51:32;;;;;;;9.52;5.03;;;;;;;19.49;52.62;97073.88;4965308;28;20050;-74
2021/06/13 07:53:59;;;;;;;7.70;5.30;;;;;;;19.56;52.40;97076.78;4965714;28;20042;-74
2021/06/13 07:56:26;;;;;;;9.40;5.03;;;;;;;19.73;54.10;97072.88;4965511;28;20114;-74
2021/06/13 07:58:52;;;;;;;14.70;5.35;;;;;;;19.97;55.34;97079.31;4965231;28;20086;-74
2021/06/13 08:01:20;;;;;;;9.45;5.10;;;;;;;20.17;53.08;97077.38;4965756;28;20054;-74
2021/06/13 08:03:47;;;;;;;7.43;4.90;;;;;;;20.36;50.09;97076.56;4965286;28;20055;-74
2021/06/13 08:06:13;;;;;;;9.57;5.93;;;;;;;20.46;52.67;97067.69;4965184;28;20054;-77
2021/06/13 08:08:40;;;;;;;7.63;5.05;;;;;;;20.54;53.06;97061.97;4965135;28;20899;-74
2021/06/13 08:11:08;;;;;;;13.18;4.97;;;;;;;20.63;51.88;97052.66;4965052;28;20051;-74
2021/06/13 08:13:35;;;;;;;8.52;4.75;;;;;;;20.83;50.06;97062.53;4965237;28;20671;-74
2021/06/13 08:16:01;;;;;;;8.52;5.38;;;;;;;21.51;48.40;97060.94;4965053;28;20054;-74
2021/06/13 08:18:29;;;;;;;7.65;4.95;;;;;;;22.78;49.16;97054.66;4965258;28;20050;-74
2021/06/13 08:20:56;;;;;;;6.32;4.25;;;;;;;23.62;43.48;97058.63;4965108;28;20051;-74
2021/06/13 08:23:22;;;;;;;9.32;4.43;;;;;;;24.20;42.95;97066.94;4964853;28;20051;-74
2021/06/13 08:25:49;;;;;;;9.35;4.63;;;;;;;24.81;38.45;97060.84;4965357;28;20079;-73
2021/06/13 08:28:16;;;;;;;8.07;3.97;;;;;;;25.33;39.65;97064.94;4964353;28;20043;-75
2021/06/13 08:30:43;;;;;;;7.82;3.53;;;;;;;25.95;38.03;97060.91;4965016;28;20049;-74
2021/06/13 08:33:10;;;;;;;6.45;3.88;;;;;;;26.29;36.01;97064.78;4963985;28;20043;-73
2021/06/13 08:35:37;;;;;;;8.77;3.90;;;;;;;25.79;37.13;97063.31;4964495;28;20082;-75
2021/06/13 08:38:05;;;;;;;7.70;3.80;;;;;;;25.98;39.50;97065.69;4964525;28;20541;-75
2021/06/13 08:40:32;;;;;;;6.72;3.03;;;;;;;25.17;35.86;97070.88;4964509;28;20429;-75
2021/06/13 08:43:00;;;;;;;8.65;3.70;;;;;;;24.45;40.44;97071.84;4965896;28;20468;-74
2021/06/13 08:45:27;;;;;;;11.02;4.15;;;;;;;24.95;40.54;97072.00;4964331;28;20054;-74
2021/06/13 08:47:55;;;;;;;5.28;3.25;;;;;;;24.96;37.38;97068.84;4964206;28;20055;-75
2021/06/13 08:50:22;;;;;;;14.55;6.20;;;;;;;24.75;38.96;97073.56;4964406;28;20046;-74
2021/06/13 08:52:51;;;;;;;11.00;6.43;;;;;;;24.95;38.80;97066.41;4964089;28;20047;-74
2021/06/13 08:55:19;;;;;;;10.95;5.60;;;;;;;24.99;37.51;97073.59;4964487;28;20043;-75
2021/06/13 08:57:46;;;;;;;7.60;3.85;;;;;;;24.86;37.74;97080.75;4970573;28;20130;-76
2021/06/13 09:00:16;;;;;;;8.05;3.45;;;;;;;24.83;42.37;97086.31;4970336;28;20045;-75
2021/06/13 09:02:43;;;;;;;7.53;3.50;;;;;;;24.89;39.75;97084.72;4968892;28;20055;-76
2021/06/13 09:05:11;;;;;;;7.25;3.30;;;;;;;24.96;41.32;97077.19;4968784;28;20050;-78
2021/06/13 09:07:48;;;;;;;8.57;3.45;;;;;;;25.02;38.53;97093.53;4969561;28;20047;-75
2021/06/13 09:10:19;;;;;;;7.47;3.60;;;;;;;25.01;40.97;97086.38;4969000;28;20047;-75
2021/06/13 09:12:46;;;;;;;5.13;3.15;;;;;;;25.24;37.46;97084.81;4969571;28;20050;-77
2021/06/13 09:15:13;;;;;;;7.38;3.60;;;;;;;24.94;40.95;97087.91;4968399;28;20042;-74
2021/06/13 09:17:42;;;;;;;7.38;3.33;;;;;;;24.75;38.17;97081.91;4969288;28;20047;-77
2021/06/13 09:20:19;;;;;;;12.13;3.70;;;;;;;24.60;42.89;97079.06;4968608;28;20046;-76
2021/06/13 09:23:08;;;;;;;6.63;3.20;;;;;;;24.30;42.64;97087.66;4969311;28;20069;-76
2021/06/13 09:25:40;;;;;;;6.45;3.10;;;;;;;24.25;41.37;97084.47;4969424;28;20046;-74
2021/06/13 09:28:08;;;;;;;8.13;3.25;;;;;;;24.15;42.03;97086.78;4968272;28;20051;-76
2021/06/13 09:30:37;;;;;;;13.73;3.70;;;;;;;24.00;39.63;97090.66;4987602;28;20045;-77
2021/06/13 09:33:13;;;;;;;7.20;3.83;;;;;;;23.91;43.11;97091.03;4988002;28;20053;-75
2021/06/13 09:35:41;;;;;;;9.70;3.80;;;;;;;23.93;42.78;97079.50;4988623;28;20046;-75
2021/06/13 09:38:11;;;;;;;8.27;3.90;;;;;;;23.88;39.40;97080.66;4987935;28;20046;-75
2021/06/13 09:40:40;;;;;;;7.00;3.70;;;;;;;23.65;40.13;97080.91;4988441;28;20051;-76
2021/06/13 09:43:19;;;;;;;6.82;3.67;;;;;;;23.64;42.03;97078.50;5003262;28;20056;-75
2021/06/13 09:45:51;;;;;;;6.93;3.13;;;;;;;23.73;42.34;97080.97;5010211;28;20054;-82
2021/06/13 09:48:18;;;;;;;9.25;3.40;;;;;;;23.78;41.79;97084.19;5012842;28;20045;-80
2021/06/13 09:50:47;;;;;;;8.40;3.50;;;;;;;23.47;40.20;97087.47;5012926;28;20042;-81
2021/06/13 09:53:35;;;;;;;12.23;3.60;;;;;;;23.22;39.87;97078.94;5012457;28;20041;-81
2021/06/13 09:56:22;;;;;;;9.93;3.50;;;;;;;23.34;42.25;97098.09;5009590;28;20045;-77
2021/06/13 09:59:01;;;;;;;7.72;3.35;;;;;;;23.47;41.89;97096.63;5012110;28;20457;-80
2021/06/13 10:01:30;;;;;;;7.50;3.65;;;;;;;23.54;39.23;97088.31;5010910;28;20057;-81
2021/06/13 10:03:58;;;;;;;6.45;3.08;;;;;;;23.54;39.99;97095.88;5012173;28;20493;-81
2021/06/13 10:06:29;;;;;;;10.10;3.15;;;;;;;23.49;39.22;97082.31;5010644;28;20042;-81
2021/06/13 10:08:57;;;;;;;6.57;3.33;;;;;;;23.52;41.02;97082.38;5011303;28;20073;-79
2021/06/13 10:11:26;;;;;;;5.38;2.90;;;;;;;23.36;39.60;97098.50;4992740;28;20396;-80
2021/06/13 10:13:55;;;;;;;7.20;3.15;;;;;;;23.21;40.40;97088.44;5010909;28;20508;-80
2021/06/13 10:16:26;;;;;;;4.75;2.70;;;;;;;23.32;40.74;97089.34;5015070;28;20050;-81
2021/06/13 10:18:55;;;;;;;8.35;3.60;;;;;;;23.41;40.68;97087.03;5014656;28;20577;-81
2021/06/13 10:21:25;;;;;;;5.03;2.83;;;;;;;23.63;43.21;97069.38;5015527;28;20057;-81
2021/06/13 10:23:52;;;;;;;6.55;3.40;;;;;;;23.74;40.87;97080.56;5016102;28;20042;-81
2021/06/13 10:26:19;;;;;;;4.97;2.95;;;;;;;23.76;39.91;97077.41;5014987;28;20076;-82
2021/06/13 10:28:47;;;;;;;7.43;2.92;;;;;;;23.63;40.06;97077.72;5014641;28;20042;-81
2021/06/13 10:31:15;;;;;;;7.22;3.42;;;;;;;23.70;38.29;97060.31;5016019;28;20153;-81
2021/06/13 10:33:42;;;;;;;4.97;2.78;;;;;;;23.68;40.73;97069.00;5015221;28;20038;-81
2021/06/13 10:36:09;;;;;;;7.65;3.25;;;;;;;23.76;39.91;97071.84;5014977;28;20046;-81
2021/06/13 10:38:36;;;;;;;4.72;2.60;;;;;;;23.58;38.05;97069.69;5014939;28;20045;-81
2021/06/13 10:41:03;;;;;;;7.95;2.85;;;;;;;23.41;38.98;97075.94;5014237;28;20053;-79
2021/06/13 10:43:31;;;;;;;5.88;2.63;;;;;;;23.47;38.65;97084.72;5015056;28;20069;-82
2021/06/13 10:46:06;;;;;;;5.95;2.72;;;;;;;23.53;39.24;97083.97;5015239;28;20452;-81
2021/06/13 10:48:38;;;;;;;6.35;2.42;;;;;;;23.61;39.51;97079.25;5015878;28;20041;-81
2021/06/13 10:51:29;;;;;;;7.40;2.75;;;;;;;23.76;40.36;97074.63;5014171;28;20061;-83
2021/06/13 10:54:30;;;;;;;8.57;3.30;;;;;;;23.90;39.25;97071.94;5016006;28;20515;-80
2021/06/13 10:57:31;;;;;;;6.45;2.40;;;;;;;23.93;38.11;97068.38;5013432;28;20474;-82
2021/06/13 11:00:03;;;;;;;6.43;2.63;;;;;;;23.98;40.63;97073.59;5014117;28;20046;-82
2021/06/13 11:02:50;;;;;;;7.18;3.30;;;;;;;23.99;38.81;97072.38;5015038;28;20038;-81
2021/06/13 11:05:41;;;;;;;5.80;2.35;;;;;;;23.95;38.76;97079.91;5014629;28;20100;-81
2021/06/13 11:08:08;;;;;;;5.25;3.10;;;;;;;23.96;39.04;97067.59;5014217;28;20038;-81
2021/06/13 11:10:35;;;;;;;5.00;2.67;;;;;;;23.84;36.51;97071.50;5016442;28;20053;-81
2021/06/13 11:13:15;;;;;;;4.82;2.60;;;;;;;23.61;39.30;97063.38;5014245;28;20280;-81
2021/06/13 11:16:00;;;;;;;6.03;2.55;;;;;;;23.64;39.92;97068.19;5015716;28;20124;-81
2021/06/13 11:18:30;;;;;;;7.13;2.20;;;;;;;23.71;38.26;97072.22;5014365;28;20129;-81
2021/06/13 11:21:05;;;;;;;5.38;2.55;;;;;;;23.82;38.72;97078.66;5014861;28;20062;-82
2021/06/13 11:23:55;;;;;;;3.72;1.98;;;;;;;23.78;36.97;97072.25;5016552;28;20051;-81
2021/06/13 11:26:36;;;;;;;6.38;2.50;;;;;;;23.88;39.93;97082.66;5013934;28;20133;-81
2021/06/13 11:29:06;;;;;;;4.07;2.40;;;;;;;23.93;39.29;97073.94;4992785;28;20038;-82
2021/06/13 11:31:32;;;;;;;3.85;1.90;;;;;;;23.87;37.62;97078.28;4995770;28;20047;-81
2021/06/13 11:34:10;;;;;;;5.75;2.72;;;;;;;23.95;39.23;97071.56;4996130;28;20046;-81
2021/06/13 11:36:39;;;;;;;4.43;2.25;;;;;;;24.01;39.69;97069.22;4996574;28;20049;-82